sensor_id;sensor_type;location;lat;lon;timestamp;P1;durP1;ratioP1;P2;durP2;ratioP2
34982;SDS011;21187;50.976;13.720;2024-02-26T00:01:46;28.83;;;12.40;;
34982;SDS011;21187;50.976;13.720;2024-02-26T00:06:48;26.98;;;12.80;;
34982;SDS011;21187;50.976;13.720;2024-02-26T00:11:53;28.50;;;11.82;;
34982;SDS011;21187;50.976;13.720;2024-02-26T00:16:55;29.77;;;13.25;;
34982;SDS011;21187;50.976;13.720;2024-02-26T00:21:57;33.15;;;14.02;;
34982;SDS011;21187;50.976;13.720;2024-02-26T00:26:59;26.50;;;12.52;;
34982;SDS011;21187;50.976;13.720;2024-02-26T00:32:01;31.88;;;13.88;;
34982;SDS011;21187;50.976;13.720;2024-02-26T00:37:03;31.40;;;13.57;;
34982;SDS011;21187;50.976;13.720;2024-02-26T00:42:05;27.35;;;13.05;;
34982;SDS011;21187;50.976;13.720;2024-02-26T00:47:07;33.03;;;14.27;;
34982;SDS011;21187;50.976;13.720;2024-02-26T00:52:09;28.85;;;13.73;;
34982;SDS011;21187;50.976;13.720;2024-02-26T00:57:10;24.25;;;12.85;;
34982;SDS011;21187;50.976;13.720;2024-02-26T01:02:13;30.95;;;12.63;;
34982;SDS011;21187;50.976;13.720;2024-02-26T01:07:15;26.83;;;13.18;;
34982;SDS011;21187;50.976;13.720;2024-02-26T01:12:16;29.15;;;13.57;;
34982;SDS011;21187;50.976;13.720;2024-02-26T01:17:18;30.80;;;13.43;;
34982;SDS011;21187;50.976;13.720;2024-02-26T01:22:20;34.05;;;15.38;;
34982;SDS011;21187;50.976;13.720;2024-02-26T01:27:22;31.00;;;13.88;;
34982;SDS011;21187;50.976;13.720;2024-02-26T01:32:28;28.27;;;12.45;;
34982;SDS011;21187;50.976;13.720;2024-02-26T01:37:29;32.55;;;14.40;;
34982;SDS011;21187;50.976;13.720;2024-02-26T01:42:32;33.15;;;13.48;;
34982;SDS011;21187;50.976;13.720;2024-02-26T01:47:34;32.13;;;13.07;;
34982;SDS011;21187;50.976;13.720;2024-02-26T01:52:36;25.48;;;12.13;;
34982;SDS011;21187;50.976;13.720;2024-02-26T01:57:38;31.70;;;12.60;;
34982;SDS011;21187;50.976;13.720;2024-02-26T02:02:39;28.80;;;12.82;;
34982;SDS011;21187;50.976;13.720;2024-02-26T02:07:43;26.20;;;12.63;;
34982;SDS011;21187;50.976;13.720;2024-02-26T02:12:46;22.90;;;11.77;;
34982;SDS011;21187;50.976;13.720;2024-02-26T02:17:48;27.15;;;11.35;;
34982;SDS011;21187;50.976;13.720;2024-02-26T02:22:50;25.42;;;12.07;;
34982;SDS011;21187;50.976;13.720;2024-02-26T02:27:53;28.05;;;12.55;;
34982;SDS011;21187;50.976;13.720;2024-02-26T02:32:57;28.30;;;13.32;;
34982;SDS011;21187;50.976;13.720;2024-02-26T02:38:02;26.83;;;11.85;;
34982;SDS011;21187;50.976;13.720;2024-02-26T02:43:04;29.58;;;12.25;;
34982;SDS011;21187;50.976;13.720;2024-02-26T02:48:06;24.55;;;12.27;;
34982;SDS011;21187;50.976;13.720;2024-02-26T02:53:08;31.38;;;12.90;;
34982;SDS011;21187;50.976;13.720;2024-02-26T02:58:10;27.27;;;12.30;;
34982;SDS011;21187;50.976;13.720;2024-02-26T03:03:12;24.52;;;11.85;;
34982;SDS011;21187;50.976;13.720;2024-02-26T03:08:14;21.95;;;11.02;;
34982;SDS011;21187;50.976;13.720;2024-02-26T03:13:15;22.83;;;11.60;;
34982;SDS011;21187;50.976;13.720;2024-02-26T03:18:17;23.23;;;11.23;;
34982;SDS011;21187;50.976;13.720;2024-02-26T03:23:19;21.15;;;10.90;;
34982;SDS011;21187;50.976;13.720;2024-02-26T03:28:22;25.00;;;10.55;;
34982;SDS011;21187;50.976;13.720;2024-02-26T03:33:24;27.73;;;12.15;;
34982;SDS011;21187;50.976;13.720;2024-02-26T03:38:26;25.13;;;12.32;;
34982;SDS011;21187;50.976;13.720;2024-02-26T03:43:28;32.15;;;14.30;;
34982;SDS011;21187;50.976;13.720;2024-02-26T03:48:29;25.95;;;10.82;;
34982;SDS011;21187;50.976;13.720;2024-02-26T03:53:31;23.05;;;10.88;;
34982;SDS011;21187;50.976;13.720;2024-02-26T03:58:33;24.63;;;11.32;;
34982;SDS011;21187;50.976;13.720;2024-02-26T04:03:35;27.02;;;11.15;;
34982;SDS011;21187;50.976;13.720;2024-02-26T04:08:37;33.40;;;12.05;;
34982;SDS011;21187;50.976;13.720;2024-02-26T04:13:39;22.88;;;10.43;;
34982;SDS011;21187;50.976;13.720;2024-02-26T04:18:41;24.63;;;10.75;;
34982;SDS011;21187;50.976;13.720;2024-02-26T04:23:43;27.92;;;10.85;;
34982;SDS011;21187;50.976;13.720;2024-02-26T04:28:45;20.60;;;10.85;;
34982;SDS011;21187;50.976;13.720;2024-02-26T04:33:47;25.88;;;11.02;;
34982;SDS011;21187;50.976;13.720;2024-02-26T04:38:49;28.83;;;11.90;;
34982;SDS011;21187;50.976;13.720;2024-02-26T04:43:50;35.33;;;12.90;;
34982;SDS011;21187;50.976;13.720;2024-02-26T04:48:52;28.88;;;12.00;;
34982;SDS011;21187;50.976;13.720;2024-02-26T04:53:58;21.88;;;9.30;;
34982;SDS011;21187;50.976;13.720;2024-02-26T04:59:00;23.80;;;10.25;;
34982;SDS011;21187;50.976;13.720;2024-02-26T05:04:02;24.48;;;10.25;;
34982;SDS011;21187;50.976;13.720;2024-02-26T05:09:07;25.00;;;11.75;;
34982;SDS011;21187;50.976;13.720;2024-02-26T05:14:09;24.15;;;10.27;;
34982;SDS011;21187;50.976;13.720;2024-02-26T05:19:11;28.70;;;11.23;;
34982;SDS011;21187;50.976;13.720;2024-02-26T05:24:13;30.30;;;10.65;;
34982;SDS011;21187;50.976;13.720;2024-02-26T05:29:17;21.92;;;9.43;;
34982;SDS011;21187;50.976;13.720;2024-02-26T05:34:19;21.58;;;9.90;;
34982;SDS011;21187;50.976;13.720;2024-02-26T05:39:21;22.92;;;10.05;;
34982;SDS011;21187;50.976;13.720;2024-02-26T05:44:25;23.55;;;9.48;;
34982;SDS011;21187;50.976;13.720;2024-02-26T05:49:28;21.33;;;9.70;;
34982;SDS011;21187;50.976;13.720;2024-02-26T05:54:31;22.60;;;10.73;;
34982;SDS011;21187;50.976;13.720;2024-02-26T05:59:33;21.67;;;9.60;;
34982;SDS011;21187;50.976;13.720;2024-02-26T06:04:35;27.75;;;11.95;;
34982;SDS011;21187;50.976;13.720;2024-02-26T06:09:38;25.05;;;10.18;;
34982;SDS011;21187;50.976;13.720;2024-02-26T06:14:44;24.65;;;10.45;;
34982;SDS011;21187;50.976;13.720;2024-02-26T06:19:46;17.83;;;7.60;;
34982;SDS011;21187;50.976;13.720;2024-02-26T06:24:48;17.02;;;7.93;;
34982;SDS011;21187;50.976;13.720;2024-02-26T06:29:50;17.40;;;8.50;;
34982;SDS011;21187;50.976;13.720;2024-02-26T06:34:55;21.23;;;9.45;;
34982;SDS011;21187;50.976;13.720;2024-02-26T06:39:58;25.80;;;10.75;;
34982;SDS011;21187;50.976;13.720;2024-02-26T06:45:00;19.83;;;7.85;;
34982;SDS011;21187;50.976;13.720;2024-02-26T06:50:03;15.48;;;7.47;;
34982;SDS011;21187;50.976;13.720;2024-02-26T06:55:05;18.48;;;7.95;;
34982;SDS011;21187;50.976;13.720;2024-02-26T07:00:10;16.17;;;6.53;;
34982;SDS011;21187;50.976;13.720;2024-02-26T07:05:16;18.23;;;7.15;;
34982;SDS011;21187;50.976;13.720;2024-02-26T07:10:19;22.33;;;7.32;;
34982;SDS011;21187;50.976;13.720;2024-02-26T07:15:21;16.17;;;7.32;;
34982;SDS011;21187;50.976;13.720;2024-02-26T07:20:23;15.55;;;6.85;;
34982;SDS011;21187;50.976;13.720;2024-02-26T07:25:26;14.63;;;5.88;;
34982;SDS011;21187;50.976;13.720;2024-02-26T07:30:28;14.20;;;6.53;;
34982;SDS011;21187;50.976;13.720;2024-02-26T07:35:31;14.13;;;6.80;;
34982;SDS011;21187;50.976;13.720;2024-02-26T07:40:35;14.70;;;6.05;;
34982;SDS011;21187;50.976;13.720;2024-02-26T07:45:45;12.77;;;6.10;;
34982;SDS011;21187;50.976;13.720;2024-02-26T07:50:48;16.13;;;5.75;;
34982;SDS011;21187;50.976;13.720;2024-02-26T07:55:50;14.93;;;6.57;;
34982;SDS011;21187;50.976;13.720;2024-02-26T08:00:52;13.88;;;5.10;;
34982;SDS011;21187;50.976;13.720;2024-02-26T08:05:54;14.15;;;6.15;;
34982;SDS011;21187;50.976;13.720;2024-02-26T08:10:57;11.63;;;5.30;;
34982;SDS011;21187;50.976;13.720;2024-02-26T08:15:58;17.50;;;6.00;;
34982;SDS011;21187;50.976;13.720;2024-02-26T08:21:00;15.80;;;5.85;;
34982;SDS011;21187;50.976;13.720;2024-02-26T08:26:02;12.32;;;6.20;;
34982;SDS011;21187;50.976;13.720;2024-02-26T08:31:05;15.90;;;5.88;;
34982;SDS011;21187;50.976;13.720;2024-02-26T08:36:08;13.38;;;6.22;;
34982;SDS011;21187;50.976;13.720;2024-02-26T08:41:10;14.13;;;6.57;;
34982;SDS011;21187;50.976;13.720;2024-02-26T08:46:12;21.38;;;7.10;;
34982;SDS011;21187;50.976;13.720;2024-02-26T08:51:14;14.73;;;6.68;;
34982;SDS011;21187;50.976;13.720;2024-02-26T08:56:16;14.40;;;7.00;;
34982;SDS011;21187;50.976;13.720;2024-02-26T09:01:20;15.65;;;6.35;;
34982;SDS011;21187;50.976;13.720;2024-02-26T09:06:22;18.52;;;7.38;;
34982;SDS011;21187;50.976;13.720;2024-02-26T09:11:24;19.55;;;7.57;;
34982;SDS011;21187;50.976;13.720;2024-02-26T09:16:26;19.83;;;7.60;;
34982;SDS011;21187;50.976;13.720;2024-02-26T09:21:28;19.60;;;7.10;;
34982;SDS011;21187;50.976;13.720;2024-02-26T09:26:30;15.90;;;7.78;;
34982;SDS011;21187;50.976;13.720;2024-02-26T09:31:32;17.20;;;8.13;;
34982;SDS011;21187;50.976;13.720;2024-02-26T09:36:35;17.48;;;8.30;;
34982;SDS011;21187;50.976;13.720;2024-02-26T09:41:37;24.05;;;8.57;;
34982;SDS011;21187;50.976;13.720;2024-02-26T09:46:39;14.85;;;7.55;;
34982;SDS011;21187;50.976;13.720;2024-02-26T09:51:41;14.90;;;7.05;;
34982;SDS011;21187;50.976;13.720;2024-02-26T09:56:43;18.00;;;8.27;;
34982;SDS011;21187;50.976;13.720;2024-02-26T10:02:04;18.92;;;7.50;;
34982;SDS011;21187;50.976;13.720;2024-02-26T10:07:09;17.88;;;7.07;;
34982;SDS011;21187;50.976;13.720;2024-02-26T10:12:12;21.67;;;7.40;;
34982;SDS011;21187;50.976;13.720;2024-02-26T10:17:17;16.63;;;7.28;;
34982;SDS011;21187;50.976;13.720;2024-02-26T10:22:20;20.02;;;7.80;;
34982;SDS011;21187;50.976;13.720;2024-02-26T10:27:23;15.15;;;7.75;;
34982;SDS011;21187;50.976;13.720;2024-02-26T10:32:26;13.70;;;7.38;;
34982;SDS011;21187;50.976;13.720;2024-02-26T10:37:28;21.38;;;8.35;;
34982;SDS011;21187;50.976;13.720;2024-02-26T10:42:30;15.25;;;7.82;;
34982;SDS011;21187;50.976;13.720;2024-02-26T10:47:33;20.13;;;8.00;;
34982;SDS011;21187;50.976;13.720;2024-02-26T10:52:35;18.23;;;8.85;;
34982;SDS011;21187;50.976;13.720;2024-02-26T10:57:39;17.38;;;8.77;;
34982;SDS011;21187;50.976;13.720;2024-02-26T11:02:44;16.10;;;8.10;;
34982;SDS011;21187;50.976;13.720;2024-02-26T11:07:48;16.92;;;8.43;;
34982;SDS011;21187;50.976;13.720;2024-02-26T11:12:51;20.88;;;8.88;;
34982;SDS011;21187;50.976;13.720;2024-02-26T11:17:55;15.98;;;8.15;;
34982;SDS011;21187;50.976;13.720;2024-02-26T11:22:58;21.25;;;7.97;;
34982;SDS011;21187;50.976;13.720;2024-02-26T11:28:01;17.85;;;8.23;;
34982;SDS011;21187;50.976;13.720;2024-02-26T11:33:07;20.05;;;8.18;;
34982;SDS011;21187;50.976;13.720;2024-02-26T11:38:16;18.48;;;8.70;;
34982;SDS011;21187;50.976;13.720;2024-02-26T11:44:04;20.10;;;8.63;;
34982;SDS011;21187;50.976;13.720;2024-02-26T11:48:55;16.90;;;8.30;;
34982;SDS011;21187;50.976;13.720;2024-02-26T11:59:45;21.02;;;8.63;;
34982;SDS011;21187;50.976;13.720;2024-02-26T12:04:47;20.48;;;8.88;;
34982;SDS011;21187;50.976;13.720;2024-02-26T12:09:51;16.17;;;7.60;;
34982;SDS011;21187;50.976;13.720;2024-02-26T12:14:53;17.45;;;8.25;;
34982;SDS011;21187;50.976;13.720;2024-02-26T12:20:08;17.67;;;8.40;;
34982;SDS011;21187;50.976;13.720;2024-02-26T12:25:12;17.10;;;8.38;;
34982;SDS011;21187;50.976;13.720;2024-02-26T12:30:14;16.23;;;7.60;;
34982;SDS011;21187;50.976;13.720;2024-02-26T12:35:17;15.60;;;8.13;;
34982;SDS011;21187;50.976;13.720;2024-02-26T12:40:19;16.40;;;7.70;;
34982;SDS011;21187;50.976;13.720;2024-02-26T12:45:21;16.98;;;7.35;;
34982;SDS011;21187;50.976;13.720;2024-02-26T12:50:23;16.38;;;7.60;;
34982;SDS011;21187;50.976;13.720;2024-02-26T12:55:25;18.23;;;7.82;;
34982;SDS011;21187;50.976;13.720;2024-02-26T13:00:28;14.07;;;7.90;;
34982;SDS011;21187;50.976;13.720;2024-02-26T13:05:30;13.18;;;7.45;;
34982;SDS011;21187;50.976;13.720;2024-02-26T13:10:33;16.13;;;7.80;;
34982;SDS011;21187;50.976;13.720;2024-02-26T13:15:36;17.95;;;8.52;;
34982;SDS011;21187;50.976;13.720;2024-02-26T13:20:38;14.90;;;8.05;;
34982;SDS011;21187;50.976;13.720;2024-02-26T13:25:41;19.08;;;8.25;;
34982;SDS011;21187;50.976;13.720;2024-02-26T13:30:56;15.30;;;7.30;;
34982;SDS011;21187;50.976;13.720;2024-02-26T13:35:59;14.52;;;8.20;;
34982;SDS011;21187;50.976;13.720;2024-02-26T13:41:02;17.10;;;7.50;;
34982;SDS011;21187;50.976;13.720;2024-02-26T13:46:04;13.25;;;7.93;;
34982;SDS011;21187;50.976;13.720;2024-02-26T13:51:05;16.48;;;8.05;;
34982;SDS011;21187;50.976;13.720;2024-02-26T13:56:07;15.00;;;7.47;;
34982;SDS011;21187;50.976;13.720;2024-02-26T14:01:11;20.55;;;7.40;;
34982;SDS011;21187;50.976;13.720;2024-02-26T14:06:13;13.40;;;6.40;;
34982;SDS011;21187;50.976;13.720;2024-02-26T14:11:15;13.05;;;5.97;;
34982;SDS011;21187;50.976;13.720;2024-02-26T14:16:17;16.10;;;6.93;;
34982;SDS011;21187;50.976;13.720;2024-02-26T14:21:21;14.32;;;7.18;;
34982;SDS011;21187;50.976;13.720;2024-02-26T14:26:23;12.55;;;7.38;;
34982;SDS011;21187;50.976;13.720;2024-02-26T14:31:25;12.73;;;6.65;;
34982;SDS011;21187;50.976;13.720;2024-02-26T14:36:27;15.95;;;7.47;;
34982;SDS011;21187;50.976;13.720;2024-02-26T14:41:30;17.48;;;6.78;;
34982;SDS011;21187;50.976;13.720;2024-02-26T14:46:32;14.70;;;6.70;;
34982;SDS011;21187;50.976;13.720;2024-02-26T14:51:34;13.10;;;6.78;;
34982;SDS011;21187;50.976;13.720;2024-02-26T14:56:36;18.60;;;7.32;;
34982;SDS011;21187;50.976;13.720;2024-02-26T15:01:38;12.10;;;6.68;;
34982;SDS011;21187;50.976;13.720;2024-02-26T15:06:40;15.73;;;5.95;;
34982;SDS011;21187;50.976;13.720;2024-02-26T15:11:42;13.02;;;6.72;;
34982;SDS011;21187;50.976;13.720;2024-02-26T15:16:45;15.02;;;6.80;;
34982;SDS011;21187;50.976;13.720;2024-02-26T15:21:47;18.52;;;8.00;;
34982;SDS011;21187;50.976;13.720;2024-02-26T15:26:50;15.98;;;6.93;;
34982;SDS011;21187;50.976;13.720;2024-02-26T15:31:52;18.65;;;6.97;;
34982;SDS011;21187;50.976;13.720;2024-02-26T15:36:54;15.00;;;6.60;;
34982;SDS011;21187;50.976;13.720;2024-02-26T15:41:55;14.52;;;6.53;;
34982;SDS011;21187;50.976;13.720;2024-02-26T15:46:58;17.80;;;7.82;;
34982;SDS011;21187;50.976;13.720;2024-02-26T15:52:01;17.83;;;8.57;;
34982;SDS011;21187;50.976;13.720;2024-02-26T15:57:06;17.67;;;7.82;;
34982;SDS011;21187;50.976;13.720;2024-02-26T16:02:11;16.23;;;7.93;;
34982;SDS011;21187;50.976;13.720;2024-02-26T16:07:22;17.70;;;8.23;;
34982;SDS011;21187;50.976;13.720;2024-02-26T16:17:45;16.83;;;9.57;;
34982;SDS011;21187;50.976;13.720;2024-02-26T16:22:50;19.23;;;7.90;;
34982;SDS011;21187;50.976;13.720;2024-02-26T16:27:52;43.65;;;11.77;;
34982;SDS011;21187;50.976;13.720;2024-02-26T16:32:54;23.70;;;9.75;;
34982;SDS011;21187;50.976;13.720;2024-02-26T16:37:57;23.75;;;9.80;;
34982;SDS011;21187;50.976;13.720;2024-02-26T16:42:58;28.00;;;11.95;;
34982;SDS011;21187;50.976;13.720;2024-02-26T16:48:04;24.23;;;10.13;;
34982;SDS011;21187;50.976;13.720;2024-02-26T16:53:07;20.73;;;9.23;;
34982;SDS011;21187;50.976;13.720;2024-02-26T16:58:09;21.30;;;10.98;;
34982;SDS011;21187;50.976;13.720;2024-02-26T17:03:11;24.13;;;10.50;;
34982;SDS011;21187;50.976;13.720;2024-02-26T17:08:14;17.90;;;8.63;;
34982;SDS011;21187;50.976;13.720;2024-02-26T17:13:17;20.98;;;9.73;;
34982;SDS011;21187;50.976;13.720;2024-02-26T17:18:19;24.27;;;9.77;;
34982;SDS011;21187;50.976;13.720;2024-02-26T17:23:22;22.25;;;8.52;;
34982;SDS011;21187;50.976;13.720;2024-02-26T17:28:25;23.13;;;10.15;;
34982;SDS011;21187;50.976;13.720;2024-02-26T17:33:27;20.52;;;10.10;;
34982;SDS011;21187;50.976;13.720;2024-02-26T17:38:30;82.78;;;36.47;;
34982;SDS011;21187;50.976;13.720;2024-02-26T17:43:32;19.23;;;9.43;;
34982;SDS011;21187;50.976;13.720;2024-02-26T17:48:34;19.38;;;9.25;;
34982;SDS011;21187;50.976;13.720;2024-02-26T17:53:36;18.23;;;9.10;;
34982;SDS011;21187;50.976;13.720;2024-02-26T17:58:39;21.00;;;10.25;;
34982;SDS011;21187;50.976;13.720;2024-02-26T18:03:43;20.48;;;10.15;;
34982;SDS011;21187;50.976;13.720;2024-02-26T18:08:46;20.10;;;9.80;;
34982;SDS011;21187;50.976;13.720;2024-02-26T18:13:47;23.38;;;11.35;;
34982;SDS011;21187;50.976;13.720;2024-02-26T18:18:49;19.05;;;10.98;;
34982;SDS011;21187;50.976;13.720;2024-02-26T18:23:51;23.15;;;9.75;;
34982;SDS011;21187;50.976;13.720;2024-02-26T18:28:53;23.55;;;11.68;;
34982;SDS011;21187;50.976;13.720;2024-02-26T18:33:55;29.75;;;11.73;;
34982;SDS011;21187;50.976;13.720;2024-02-26T18:38:58;25.17;;;10.80;;
34982;SDS011;21187;50.976;13.720;2024-02-26T18:44:00;26.70;;;11.98;;
34982;SDS011;21187;50.976;13.720;2024-02-26T18:49:02;23.98;;;10.32;;
34982;SDS011;21187;50.976;13.720;2024-02-26T18:54:04;24.63;;;10.68;;
34982;SDS011;21187;50.976;13.720;2024-02-26T18:59:07;21.55;;;11.05;;
34982;SDS011;21187;50.976;13.720;2024-02-26T19:04:10;19.02;;;10.07;;
34982;SDS011;21187;50.976;13.720;2024-02-26T19:09:14;20.00;;;9.15;;
34982;SDS011;21187;50.976;13.720;2024-02-26T19:14:17;21.35;;;9.57;;
34982;SDS011;21187;50.976;13.720;2024-02-26T19:19:20;24.10;;;11.20;;
34982;SDS011;21187;50.976;13.720;2024-02-26T19:24:22;22.92;;;11.35;;
34982;SDS011;21187;50.976;13.720;2024-02-26T19:29:25;24.20;;;10.65;;
34982;SDS011;21187;50.976;13.720;2024-02-26T19:34:28;21.98;;;10.82;;
34982;SDS011;21187;50.976;13.720;2024-02-26T19:39:30;28.98;;;11.40;;
34982;SDS011;21187;50.976;13.720;2024-02-26T19:44:32;22.35;;;10.82;;
34982;SDS011;21187;50.976;13.720;2024-02-26T19:49:34;24.17;;;11.80;;
34982;SDS011;21187;50.976;13.720;2024-02-26T19:54:37;27.08;;;12.45;;
34982;SDS011;21187;50.976;13.720;2024-02-26T19:59:40;26.88;;;12.38;;
34982;SDS011;21187;50.976;13.720;2024-02-26T20:04:42;32.25;;;12.98;;
34982;SDS011;21187;50.976;13.720;2024-02-26T20:09:44;33.85;;;12.70;;
34982;SDS011;21187;50.976;13.720;2024-02-26T20:14:46;25.85;;;13.48;;
34982;SDS011;21187;50.976;13.720;2024-02-26T20:19:48;29.02;;;13.75;;
34982;SDS011;21187;50.976;13.720;2024-02-26T20:24:51;30.50;;;14.43;;
34982;SDS011;21187;50.976;13.720;2024-02-26T20:29:56;27.23;;;12.30;;
34982;SDS011;21187;50.976;13.720;2024-02-26T20:34:58;24.27;;;11.40;;
34982;SDS011;21187;50.976;13.720;2024-02-26T20:40:00;23.70;;;10.73;;
34982;SDS011;21187;50.976;13.720;2024-02-26T20:45:05;23.10;;;11.55;;
34982;SDS011;21187;50.976;13.720;2024-02-26T20:50:07;26.98;;;13.77;;
34982;SDS011;21187;50.976;13.720;2024-02-26T20:55:09;29.98;;;12.90;;
34982;SDS011;21187;50.976;13.720;2024-02-26T21:00:12;30.75;;;14.95;;
34982;SDS011;21187;50.976;13.720;2024-02-26T21:05:14;37.33;;;14.38;;
34982;SDS011;21187;50.976;13.720;2024-02-26T21:10:16;29.92;;;13.52;;
34982;SDS011;21187;50.976;13.720;2024-02-26T21:15:20;27.38;;;13.63;;
34982;SDS011;21187;50.976;13.720;2024-02-26T21:20:22;30.65;;;13.63;;
34982;SDS011;21187;50.976;13.720;2024-02-26T21:25:25;30.52;;;14.45;;
34982;SDS011;21187;50.976;13.720;2024-02-26T21:30:27;30.40;;;14.35;;
34982;SDS011;21187;50.976;13.720;2024-02-26T21:35:29;27.90;;;13.50;;
34982;SDS011;21187;50.976;13.720;2024-02-26T21:40:31;30.65;;;13.52;;
34982;SDS011;21187;50.976;13.720;2024-02-26T21:45:33;28.52;;;13.02;;
34982;SDS011;21187;50.976;13.720;2024-02-26T21:50:35;26.85;;;14.40;;
34982;SDS011;21187;50.976;13.720;2024-02-26T21:55:37;30.95;;;14.02;;
34982;SDS011;21187;50.976;13.720;2024-02-26T22:00:38;35.45;;;15.40;;
34982;SDS011;21187;50.976;13.720;2024-02-26T22:05:41;32.58;;;14.35;;
34982;SDS011;21187;50.976;13.720;2024-02-26T22:10:42;32.42;;;14.00;;
34982;SDS011;21187;50.976;13.720;2024-02-26T22:15:47;38.30;;;16.30;;
34982;SDS011;21187;50.976;13.720;2024-02-26T22:20:49;32.22;;;15.00;;
34982;SDS011;21187;50.976;13.720;2024-02-26T22:25:50;32.28;;;15.13;;
34982;SDS011;21187;50.976;13.720;2024-02-26T22:30:52;35.53;;;14.65;;
34982;SDS011;21187;50.976;13.720;2024-02-26T22:35:54;30.73;;;14.10;;
34982;SDS011;21187;50.976;13.720;2024-02-26T22:40:56;37.75;;;14.38;;
34982;SDS011;21187;50.976;13.720;2024-02-26T22:45:58;37.03;;;14.80;;
34982;SDS011;21187;50.976;13.720;2024-02-26T22:51:00;31.98;;;13.70;;
34982;SDS011;21187;50.976;13.720;2024-02-26T22:56:02;33.78;;;14.25;;
34982;SDS011;21187;50.976;13.720;2024-02-26T23:01:04;43.42;;;14.15;;
34982;SDS011;21187;50.976;13.720;2024-02-26T23:06:06;40.35;;;15.00;;
34982;SDS011;21187;50.976;13.720;2024-02-26T23:11:09;35.63;;;14.63;;
34982;SDS011;21187;50.976;13.720;2024-02-26T23:16:11;34.22;;;15.15;;
34982;SDS011;21187;50.976;13.720;2024-02-26T23:21:13;33.38;;;14.90;;
34982;SDS011;21187;50.976;13.720;2024-02-26T23:26:15;41.13;;;15.65;;
34982;SDS011;21187;50.976;13.720;2024-02-26T23:31:17;33.38;;;15.80;;
34982;SDS011;21187;50.976;13.720;2024-02-26T23:36:19;32.85;;;14.73;;
34982;SDS011;21187;50.976;13.720;2024-02-26T23:41:21;39.25;;;16.17;;
34982;SDS011;21187;50.976;13.720;2024-02-26T23:46:24;37.30;;;16.17;;
34982;SDS011;21187;50.976;13.720;2024-02-26T23:51:25;38.83;;;15.30;;
34982;SDS011;21187;50.976;13.720;2024-02-26T23:56:28;39.97;;;15.18;;
